首页
METAR-TAF:

METAR-TAF

机场 :

Killarney, 爱尔兰

纬度: 52-10-51N, 经度: 9-31-26W, 海拔: 34米

当前天气观测

该预报发布于10小时和40分钟前的19:30 UTC
风速2节,风向
温度 7°C
湿度 87%
气压 1020 hPa
能见度10公里或以上
多云层高于1500英尺

METAR: EIKY 241930Z 18002KT 9999 BKN015 07/05 Q1020

时间: 06:10 (06:10 UTC)

预报

该预报发布于1小时和10分钟前的05:00 UTC
预报有效从25日的 06点(UTC)到 25日的 15点(UTC)
风速13节,风向
能见度10公里或以上
散云层高于1500英尺
多云层高于2000英尺
短暂存在
从 25日的 06点(UTC)到 25日的 15点(UTC)
多云层高于1200英尺

TAF: EIKY 250500Z 2506/2515 19013KT 9999 SCT015 BKN020 TEMPO 2506/2515 BKN012

超过4000个机场的气象观测和天气预报(METAR&TAF报告)。

可查询的气象台以黄色和红色小点在地图上表示。

将鼠标移到小点上方,可查看气象台名称。

然后点击查看天气观测和预报。

如需切换地图:点击带黑十字的绿色按钮放大地图;点击带横线的绿色按钮缩小地图;或者点击绿色箭头查看邻近地区的地图。


METAR-TAF: